Time;durP1;ratioP1;P1;durP2;ratioP2;P2;SDS_P1;SDS_P2;PMS_P1;PMS_P2;Temp;Humidity;BMP_temperature;BMP_pressure;BME280_temperature;BME280_humidity;BME280_pressure;Samples;Min_cycle;Max_cycle;Signal;HPM_P1;HPM_P2
2023/08/01 00:00:15;;;;;;;8.30;4.80;;;;;;;29.59;100.00;100181.42;108783;1256;67357;-89
2023/08/01 00:03:04;;;;;;;11.00;4.40;;;;;;;29.55;100.00;100183.45;108800;1256;62356;-89
2023/08/01 00:05:54;;;;;;;6.00;4.30;;;;;;;29.59;100.00;100183.43;108804;1256;62508;-89
2023/08/01 00:08:43;;;;;;;5.20;4.00;;;;;;;29.49;100.00;100183.19;108845;1256;59857;-90
2023/08/01 00:11:31;;;;;;;6.70;4.90;;;;;;;29.43;100.00;100179.30;108820;1256;59223;-89
2023/08/01 00:14:20;;;;;;;5.30;4.50;;;;;;;29.43;100.00;100174.79;108823;1255;65668;-88
2023/08/01 00:17:08;;;;;;;6.20;5.00;;;;;;;29.41;100.00;100168.78;108688;1255;62108;-89
2023/08/01 00:19:57;;;;;;;6.40;4.60;;;;;;;29.43;100.00;100171.67;108870;1255;63336;-90
2023/08/01 00:22:45;;;;;;;5.30;4.70;;;;;;;29.35;100.00;100169.63;108831;1255;59074;-89
2023/08/01 00:25:33;;;;;;;7.00;5.00;;;;;;;29.28;100.00;100172.75;108874;1256;59006;-89
2023/08/01 00:28:22;;;;;;;6.60;4.30;;;;;;;29.32;100.00;100175.38;108773;1255;75098;-90
2023/08/01 00:31:10;;;;;;;5.40;3.90;;;;;;;29.22;100.00;100177.37;108806;1256;61374;-90
2023/08/01 00:33:59;;;;;;;6.90;4.00;;;;;;;29.05;100.00;100176.03;108844;1256;65222;-89
2023/08/01 00:36:49;;;;;;;7.30;4.60;;;;;;;29.01;100.00;100173.73;108748;1255;59842;-89
2023/08/01 00:39:37;;;;;;;8.60;4.20;;;;;;;29.07;100.00;100171.93;108830;1255;59947;-88
2023/08/01 00:42:25;;;;;;;5.00;4.00;;;;;;;29.14;100.00;100169.00;108791;1255;66436;-90
2023/08/01 00:45:14;;;;;;;5.20;4.10;;;;;;;29.07;100.00;100167.04;108786;1255;60753;-89
2023/08/01 00:48:03;;;;;;;6.90;4.30;;;;;;;29.08;100.00;100163.73;108791;1255;68420;-90
2023/08/01 00:50:51;;;;;;;9.70;4.60;;;;;;;29.03;100.00;100170.18;108860;1255;59142;-89
2023/08/01 00:53:39;;;;;;;8.50;4.10;;;;;;;28.99;100.00;100173.01;108912;1255;59633;-89
2023/08/01 00:56:28;;;;;;;7.30;4.80;;;;;;;29.11;100.00;100177.61;108808;1255;67388;-90
2023/08/01 00:59:16;;;;;;;6.70;3.70;;;;;;;29.13;100.00;100175.35;108808;1256;61769;-89
2023/08/01 01:02:05;;;;;;;11.60;4.20;;;;;;;29.07;100.00;100177.31;108736;1255;66276;-89
2023/08/01 01:04:53;;;;;;;9.40;4.10;;;;;;;29.06;100.00;100178.51;108780;1255;59683;-90
2023/08/01 01:07:42;;;;;;;6.10;4.00;;;;;;;29.08;100.00;100177.64;108858;1255;59758;-89
2023/08/01 01:10:31;;;;;;;7.80;4.00;;;;;;;29.18;100.00;100171.06;108790;1255;65865;-89
2023/08/01 01:13:20;;;;;;;4.60;3.70;;;;;;;29.15;100.00;100167.39;108794;1255;59817;-88
2023/08/01 01:16:09;;;;;;;9.70;4.60;;;;;;;29.09;100.00;100166.05;108829;1255;66650;-89
2023/08/01 01:18:57;;;;;;;7.30;4.30;;;;;;;29.02;100.00;100169.45;108795;1255;59339;-89
2023/08/01 01:21:46;;;;;;;5.70;4.00;;;;;;;29.05;100.00;100168.89;108813;1255;59158;-89
2023/08/01 01:24:34;;;;;;;3.90;3.50;;;;;;;29.12;100.00;100169.18;108795;1255;65861;-90
2023/08/01 01:27:23;;;;;;;7.00;4.30;;;;;;;29.02;100.00;100165.36;108761;1255;62421;-89
2023/08/01 01:30:11;;;;;;;4.00;3.40;;;;;;;28.96;100.00;100168.69;108866;1255;64870;-88
2023/08/01 01:33:00;;;;;;;7.30;4.20;;;;;;;28.93;100.00;100165.34;108673;1256;247974;-88
2023/08/01 01:35:49;;;;;;;6.20;4.20;;;;;;;29.02;100.00;100160.77;108749;1255;59090;-89
2023/08/01 01:38:37;;;;;;;5.60;4.10;;;;;;;28.96;100.00;100157.03;108849;1256;67267;-89
2023/08/01 01:41:25;;;;;;;5.60;4.50;;;;;;;29.04;100.00;100156.59;108912;1255;61120;-89
2023/08/01 01:44:14;;;;;;;5.70;4.00;;;;;;;28.99;100.00;100161.69;108905;1255;62454;-89
2023/08/01 01:47:03;;;;;;;6.40;4.20;;;;;;;28.86;100.00;100168.13;108662;1259;59228;-89
2023/08/01 01:49:51;;;;;;;4.10;3.50;;;;;;;28.68;100.00;100165.89;108819;1256;60454;-88
2023/08/01 01:52:39;;;;;;;5.70;3.90;;;;;;;28.49;100.00;100163.98;108869;1256;66246;-90
2023/08/01 01:55:28;;;;;;;6.90;3.40;;;;;;;28.57;100.00;100163.38;108850;1255;60692;-89
2023/08/01 01:58:17;;;;;;;5.30;4.80;;;;;;;28.68;100.00;100163.40;108815;1255;65140;-88
2023/08/01 02:01:05;;;;;;;7.20;4.70;;;;;;;28.65;100.00;100163.10;108773;1255;59082;-89
2023/08/01 02:03:53;;;;;;;7.60;4.50;;;;;;;28.59;100.00;100162.88;108844;1255;60597;-88
2023/08/01 02:06:42;;;;;;;4.90;4.40;;;;;;;28.65;100.00;100164.13;108801;1256;67126;-89
2023/08/01 02:09:30;;;;;;;6.10;5.00;;;;;;;28.70;100.00;100163.39;108772;1255;61796;-89
2023/08/01 02:12:18;;;;;;;8.80;4.50;;;;;;;28.64;100.00;100164.55;108798;1255;65457;-88
2023/08/01 02:15:07;;;;;;;7.00;4.30;;;;;;;28.75;100.00;100167.70;108820;1255;59741;-89
2023/08/01 02:17:56;;;;;;;5.20;4.00;;;;;;;28.88;100.00;100169.55;108840;1257;59199;-89
2023/08/01 02:20:44;;;;;;;4.60;4.10;;;;;;;28.96;100.00;100171.42;108789;1255;64497;-88
2023/08/01 02:23:36;;;;;;;5.50;4.30;;;;;;;28.90;100.00;100171.71;108841;1255;62256;-87
2023/08/01 02:26:24;;;;;;;8.60;4.40;;;;;;;28.89;100.00;100173.39;108801;1255;65813;-87
2023/08/01 02:29:13;;;;;;;5.50;4.50;;;;;;;28.81;100.00;100177.77;108764;1255;59143;-88
2023/08/01 02:32:01;;;;;;;5.00;4.20;;;;;;;28.81;100.00;100182.69;108772;1256;60890;-88
2023/08/01 02:34:50;;;;;;;7.60;5.00;;;;;;;28.70;100.00;100172.46;108928;1255;68303;-88
2023/08/01 02:37:38;;;;;;;10.40;5.30;;;;;;;28.67;100.00;100163.33;108896;1255;61696;-86
2023/08/01 02:40:27;;;;;;;7.80;5.90;;;;;;;28.66;100.00;100161.08;108837;1255;65156;-87
2023/08/01 02:43:15;;;;;;;9.70;5.00;;;;;;;28.67;100.00;100163.73;108761;1257;59046;-88
2023/08/01 02:46:05;;;;;;;8.10;5.00;;;;;;;28.73;100.00;100164.10;108834;1255;59193;-88
2023/08/01 02:48:54;;;;;;;9.70;5.10;;;;;;;28.77;100.00;100162.94;108887;1255;68496;-87
2023/08/01 02:51:42;;;;;;;10.40;5.20;;;;;;;28.66;100.00;100160.44;108787;1256;60442;-88
2023/08/01 02:54:30;;;;;;;7.20;5.00;;;;;;;28.61;100.00;100161.59;108834;1256;63859;-88
2023/08/01 02:57:19;;;;;;;7.40;5.10;;;;;;;28.62;100.00;100159.02;108772;1258;59138;-88
2023/08/01 03:00:11;;;;;;;7.70;5.20;;;;;;;28.67;100.00;100157.38;108819;1257;59393;-88
2023/08/01 03:02:59;;;;;;;;;;;;;;;28.82;100.00;100149.75;108734;1255;67996;-87
2023/08/01 03:05:48;;;;;;;9.40;5.50;;;;;;;28.85;100.00;100151.17;108833;1255;61997;-89
2023/08/01 03:08:36;;;;;;;7.90;5.10;;;;;;;28.78;100.00;100160.93;108839;1256;66144;-88
2023/08/01 03:11:25;;;;;;;7.90;5.40;;;;;;;28.87;100.00;100167.63;108779;1258;59415;-88
2023/08/01 03:14:13;;;;;;;8.70;5.10;;;;;;;28.87;100.00;100168.74;108738;1257;59133;-87
2023/08/01 03:17:02;;;;;;;6.60;4.80;;;;;;;28.78;100.00;100166.80;108744;1256;77313;-87
2023/08/01 03:19:50;;;;;;;9.00;5.50;;;;;;;28.88;100.00;100166.02;108814;1256;61621;-87
2023/08/01 03:22:39;;;;;;;10.40;5.30;;;;;;;28.92;100.00;100165.10;108726;1256;63845;-87
2023/08/01 03:25:28;;;;;;;12.00;5.00;;;;;;;28.92;100.00;100167.44;108756;1256;59136;-88
2023/08/01 03:28:17;;;;;;;7.80;6.00;;;;;;;28.94;100.00;100167.50;108816;1256;59194;-87
2023/08/01 03:31:05;;;;;;;8.00;5.90;;;;;;;28.88;100.00;100168.02;108845;1256;67074;-88
2023/08/01 03:33:54;;;;;;;6.00;5.20;;;;;;;28.79;100.00;100165.27;108792;1256;61884;-87
2023/08/01 03:36:42;;;;;;;7.30;5.10;;;;;;;28.80;100.00;100158.67;108769;1256;63981;-88
2023/08/01 03:39:30;;;;;;;8.20;5.60;;;;;;;28.72;100.00;100161.20;108777;1256;59163;-87
2023/08/01 03:42:18;;;;;;;7.30;5.80;;;;;;;28.67;100.00;100156.33;108750;1256;59074;-88
2023/08/01 03:45:07;;;;;;;8.10;5.10;;;;;;;28.70;100.00;100152.23;108745;1256;65850;-88
2023/08/01 03:47:56;;;;;;;7.20;5.50;;;;;;;28.68;100.00;100152.96;108814;1256;62152;-88
2023/08/01 03:50:44;;;;;;;8.40;5.90;;;;;;;28.70;100.00;100151.59;108726;1256;65879;-87
2023/08/01 03:53:33;;;;;;;8.80;5.80;;;;;;;28.85;100.00;100149.96;108728;1256;59248;-88
2023/08/01 03:56:21;;;;;;;6.80;5.40;;;;;;;28.81;100.00;100152.15;108808;1256;59039;-87
2023/08/01 03:59:11;;;;;;;7.40;5.60;;;;;;;28.69;100.00;100150.70;108729;1256;68112;-87
2023/08/01 04:01:59;;;;;;;10.10;6.60;;;;;;;28.79;100.00;100152.98;108692;1256;61837;-88
2023/08/01 04:04:47;;;;;;;11.90;5.90;;;;;;;28.87;100.00;100153.33;108702;1256;66116;-86
2023/08/01 04:07:36;;;;;;;8.00;6.10;;;;;;;28.87;100.00;100155.80;108804;1259;59189;-87
2023/08/01 04:10:25;;;;;;;8.20;6.10;;;;;;;28.98;100.00;100159.60;108756;1255;59128;-87
2023/08/01 04:13:13;;;;;;;8.30;6.00;;;;;;;28.99;100.00;100162.00;108882;1257;67503;-88
2023/08/01 04:16:02;;;;;;;9.00;6.70;;;;;;;29.01;100.00;100164.23;108898;1255;61964;-87
2023/08/01 04:18:50;;;;;;;10.80;5.80;;;;;;;29.07;100.00;100168.95;108896;1255;62960;-87
2023/08/01 04:21:39;;;;;;;8.00;6.20;;;;;;;29.13;100.00;100169.08;108748;1255;59098;-86
2023/08/01 04:24:27;;;;;;;7.30;6.00;;;;;;;29.25;100.00;100170.61;108845;1255;59105;-87
2023/08/01 04:27:16;;;;;;;7.30;6.20;;;;;;;29.05;100.00;100174.27;108824;1256;76577;-88
2023/08/01 04:30:05;;;;;;;7.80;6.20;;;;;;;29.01;100.00;100180.70;108808;1255;62143;-86
2023/08/01 04:32:53;;;;;;;6.70;5.60;;;;;;;29.05;100.00;100183.84;108819;1255;64692;-86
2023/08/01 04:35:42;;;;;;;6.40;5.40;;;;;;;29.00;100.00;100183.94;108839;1256;59837;-86
2023/08/01 04:38:30;;;;;;;7.40;5.80;;;;;;;28.89;100.00;100186.48;108723;1257;59649;-86
2023/08/01 04:41:18;;;;;;;7.30;5.70;;;;;;;28.86;100.00;100190.28;108794;1257;65770;-86
2023/08/01 04:44:07;;;;;;;8.20;5.70;;;;;;;28.84;100.00;100191.10;108849;1257;61138;-86
2023/08/01 04:46:55;;;;;;;8.10;5.20;;;;;;;28.85;100.00;100196.80;108766;1258;65570;-86
2023/08/01 04:49:44;;;;;;;7.00;5.50;;;;;;;28.84;100.00;100198.17;108926;1256;59212;-86
2023/08/01 04:52:32;;;;;;;6.40;5.40;;;;;;;28.83;100.00;100200.99;108803;1256;59091;-86
2023/08/01 04:55:21;;;;;;;8.10;5.80;;;;;;;28.94;100.00;100205.75;108826;1255;67808;-85
2023/08/01 04:58:09;;;;;;;6.80;5.20;;;;;;;28.91;100.00;100209.62;108905;1255;60750;-86
2023/08/01 05:00:58;;;;;;;5.80;4.70;;;;;;;28.97;100.00;100209.90;108862;1255;62550;-85
2023/08/01 05:03:47;;;;;;;4.60;4.10;;;;;;;28.98;100.00;100207.02;108796;1255;59793;-85
2023/08/01 05:06:35;;;;;;;6.40;4.70;;;;;;;28.90;100.00;100209.14;108831;1257;59085;-85
2023/08/01 05:09:24;;;;;;;4.80;4.20;;;;;;;28.93;100.00;100210.41;108878;1256;68433;-86
2023/08/01 05:12:12;;;;;;;5.90;4.10;;;;;;;28.76;100.00;100210.50;108830;1255;62524;-85
2023/08/01 05:15:00;;;;;;;7.70;4.90;;;;;;;28.79;100.00;100215.23;108869;1256;66117;-85
2023/08/01 05:17:49;;;;;;;6.50;4.20;;;;;;;28.75;100.00;100212.20;108873;1255;59662;-85
2023/08/01 05:20:37;;;;;;;6.60;5.40;;;;;;;28.62;100.00;100212.83;108884;1255;59037;-86
2023/08/01 05:23:26;;;;;;;5.80;4.30;;;;;;;28.69;100.00;100213.44;108847;1255;67570;-86
2023/08/01 05:26:14;;;;;;;6.60;4.60;;;;;;;28.67;100.00;100212.15;108838;1255;62207;-86
2023/08/01 05:29:03;;;;;;;7.00;4.40;;;;;;;28.75;100.00;100212.52;108845;1255;65784;-86
2023/08/01 05:31:52;;;;;;;6.70;4.80;;;;;;;28.92;100.00;100214.27;108923;1256;59679;-85
2023/08/01 05:34:40;;;;;;;5.90;4.60;;;;;;;29.14;100.00;100215.12;108797;1255;59303;-86
2023/08/01 05:37:28;;;;;;;6.10;4.10;;;;;;;29.26;100.00;100212.64;108848;1255;65754;-86
2023/08/01 05:40:17;;;;;;;6.40;4.30;;;;;;;29.13;100.00;100212.48;108911;1255;60816;-86
2023/08/01 05:43:08;;;;;;;5.00;4.40;;;;;;;29.19;100.00;100209.95;108935;1255;66535;-86
2023/08/01 05:45:56;;;;;;;5.70;4.90;;;;;;;29.29;100.00;100209.81;108863;1255;59430;-86
2023/08/01 05:48:45;;;;;;;4.50;4.00;;;;;;;29.39;100.00;100209.89;108901;1255;59040;-86
2023/08/01 05:51:33;;;;;;;5.20;3.70;;;;;;;29.45;100.00;100211.13;108901;1255;68711;-87
2023/08/01 05:54:21;;;;;;;4.50;3.40;;;;;;;29.34;100.00;100207.67;108737;1257;60788;-86
2023/08/01 05:57:10;;;;;;;4.10;3.10;;;;;;;29.21;100.00;100206.00;108817;1255;65964;-86
2023/08/01 05:59:58;;;;;;;6.10;3.90;;;;;;;29.26;100.00;100203.16;108576;1255;59121;-86
2023/08/01 06:02:47;;;;;;;4.40;3.80;;;;;;;29.28;100.00;100200.73;108766;1255;59596;-86
2023/08/01 06:05:35;;;;;;;5.80;3.90;;;;;;;29.38;100.00;100197.98;108865;1256;65724;-86
2023/08/01 06:08:24;;;;;;;5.40;3.80;;;;;;;29.52;100.00;100195.14;108753;1255;62209;-86
2023/08/01 06:11:12;;;;;;;4.00;3.60;;;;;;;29.63;100.00;100193.37;108861;1255;66343;-86
2023/08/01 06:14:01;;;;;;;5.20;3.90;;;;;;;29.74;100.00;100191.20;108818;1256;59137;-86
2023/08/01 06:16:49;;;;;;;4.80;3.90;;;;;;;29.93;100.00;100189.89;108866;1257;59097;-86
2023/08/01 06:19:38;;;;;;;3.80;3.10;;;;;;;30.12;100.00;100193.47;108844;1255;68094;-86
2023/08/01 06:22:26;;;;;;;4.00;3.60;;;;;;;30.30;100.00;100195.77;108757;1257;62533;-86
2023/08/01 06:25:14;;;;;;;3.70;3.40;;;;;;;30.45;100.00;100198.41;108820;1255;62535;-86
2023/08/01 06:28:04;;;;;;;3.90;3.50;;;;;;;30.74;100.00;100203.59;108827;1255;59059;-86
2023/08/01 06:30:52;;;;;;;4.20;3.60;;;;;;;31.22;100.00;100204.21;108800;1255;59683;-86
2023/08/01 06:33:41;;;;;;;3.90;3.30;;;;;;;31.45;100.00;100203.55;108854;1255;68616;-86
2023/08/01 06:36:29;;;;;;;3.20;2.50;;;;;;;31.65;100.00;100207.17;108870;1256;59935;-86
2023/08/01 06:39:17;;;;;;;4.00;2.80;;;;;;;31.88;100.00;100208.55;108854;1256;66145;-87
2023/08/01 06:42:06;;;;;;;3.40;2.60;;;;;;;32.11;100.00;100211.94;108847;1257;59321;-87
2023/08/01 06:44:54;;;;;;;3.60;2.40;;;;;;;32.07;100.00;100211.21;108943;1256;59237;-87
2023/08/01 06:47:45;;;;;;;3.10;2.70;;;;;;;31.89;100.00;100211.17;108880;1256;65687;-87
2023/08/01 06:50:33;;;;;;;2.80;2.30;;;;;;;31.78;100.00;100211.79;108888;1255;59102;-87
2023/08/01 06:53:21;;;;;;;2.90;2.60;;;;;;;31.76;100.00;100209.97;108885;1255;66347;-87
2023/08/01 06:56:10;;;;;;;2.90;2.60;;;;;;;31.91;100.00;100207.30;108794;1257;59052;-87
2023/08/01 06:58:59;;;;;;;3.60;2.90;;;;;;;32.05;100.00;100205.33;108864;1255;59103;-88
2023/08/01 07:01:47;;;;;;;3.90;2.50;;;;;;;32.27;100.00;100204.33;108859;1255;66643;-88
2023/08/01 07:04:36;;;;;;;2.50;2.30;;;;;;;32.67;100.00;100199.98;108870;1255;59167;-88
2023/08/01 07:07:25;;;;;;;2.90;2.60;;;;;;;32.85;100.00;100202.68;108872;1255;66159;-88
2023/08/01 07:10:13;;;;;;;4.70;2.70;;;;;;;33.03;100.00;100201.14;108791;1257;60030;-88
2023/08/01 07:13:04;;;;;;;2.90;2.40;;;;;;;33.38;100.00;100198.05;108788;1255;59116;-88
2023/08/01 07:15:52;;;;;;;2.20;2.00;;;;;;;33.70;100.00;100200.23;108855;1255;64525;-89
2023/08/01 07:18:40;;;;;;;4.00;2.40;;;;;;;33.68;100.00;100201.43;108850;1255;62127;-88
2023/08/01 07:21:29;;;;;;;2.20;2.00;;;;;;;33.54;100.00;100197.99;108939;1256;63846;-88
2023/08/01 07:24:17;;;;;;;3.40;2.00;;;;;;;33.64;100.00;100196.92;108886;1256;59939;-89
2023/08/01 07:27:05;;;;;;;2.50;2.10;;;;;;;33.80;100.00;100200.64;108859;1256;60978;-89
2023/08/01 07:29:54;;;;;;;3.40;2.00;;;;;;;33.98;100.00;100200.72;108829;1256;66241;-89
2023/08/01 07:32:43;;;;;;;2.30;2.10;;;;;;;34.00;100.00;100200.44;108881;1256;60827;-89
2023/08/01 07:35:31;;;;;;;1.70;1.60;;;;;;;34.05;100.00;100202.98;108922;1255;66941;-88
2023/08/01 07:38:20;;;;;;;2.60;1.90;;;;;;;34.35;100.00;100202.81;108861;1255;59156;-88
2023/08/01 07:41:08;;;;;;;2.30;1.70;;;;;;;34.37;100.00;100200.86;108860;1255;59338;-89
2023/08/01 07:43:57;;;;;;;3.10;1.80;;;;;;;34.43;100.00;100202.96;108879;1255;68308;-90
2023/08/01 07:46:45;;;;;;;3.40;1.90;;;;;;;34.59;100.00;100202.21;108703;1256;59778;-89
2023/08/01 07:49:33;;;;;;;1.60;1.50;;;;;;;34.63;100.00;100201.29;108835;1256;64603;-89
2023/08/01 07:52:22;;;;;;;2.90;1.80;;;;;;;34.52;100.00;100198.83;108854;1255;59172;-89
2023/08/01 07:55:10;;;;;;;2.20;1.70;;;;;;;34.49;100.00;100200.29;108756;1255;59318;-90
2023/08/01 07:57:59;;;;;;;1.80;1.70;;;;;;;34.62;100.00;100200.65;108813;1255;65988;-88
2023/08/01 08:00:48;;;;;;;1.80;1.50;;;;;;;34.86;100.00;100198.46;108833;1256;62394;-88
2023/08/01 08:03:36;;;;;;;1.40;1.20;;;;;;;35.11;100.00;100202.08;108803;1255;64684;-89
2023/08/01 08:06:25;;;;;;;1.20;1.10;;;;;;;35.03;99.80;100200.35;108759;1255;59634;-89
2023/08/01 08:09:13;;;;;;;1.90;1.40;;;;;;;34.99;100.00;100202.35;108799;1255;59196;-89
2023/08/01 08:12:02;;;;;;;1.60;1.20;;;;;;;35.02;100.00;100204.14;108838;1257;65761;-90
2023/08/01 08:14:50;;;;;;;2.40;1.40;;;;;;;34.98;100.00;100208.02;108704;1255;61760;-89
2023/08/01 08:17:38;;;;;;;2.70;1.30;;;;;;;35.15;100.00;100207.31;108824;1256;63835;-88
2023/08/01 08:20:27;;;;;;;0.80;0.80;;;;;;;35.34;100.00;100203.80;108798;1255;59859;-89
2023/08/01 08:23:15;;;;;;;1.40;1.10;;;;;;;35.68;100.00;100202.34;108791;1256;59424;-88
2023/08/01 08:26:04;;;;;;;5.40;1.00;;;;;;;35.95;99.76;100199.50;108807;1255;68187;-88
2023/08/01 08:28:53;;;;;;;1.20;1.10;;;;;;;36.06;94.54;100201.26;108934;1255;61928;-90
2023/08/01 08:31:41;;;;;;;2.50;1.50;;;;;;;35.89;95.80;100199.06;108784;1258;62509;-88
2023/08/01 08:34:29;;;;;;;1.00;0.90;;;;;;;35.66;93.48;100198.27;108870;1257;59943;-89
2023/08/01 08:37:18;;;;;;;1.30;1.00;;;;;;;35.55;97.36;100200.73;108820;1255;59003;-89
2023/08/01 08:40:07;;;;;;;1.00;0.90;;;;;;;35.46;92.78;100198.68;108888;1255;68437;-89
2023/08/01 08:42:55;;;;;;;4.40;1.20;;;;;;;35.24;94.82;100197.94;108864;1255;59922;-90
2023/08/01 08:45:44;;;;;;;1.20;1.00;;;;;;;34.98;99.73;100192.10;108849;1255;65967;-89
2023/08/01 08:48:32;;;;;;;0.90;0.90;;;;;;;35.09;97.42;100190.52;108807;1258;59463;-88
2023/08/01 08:51:27;;;;;;;1.70;1.50;;;;;;;35.01;97.05;100185.84;108928;1256;60048;-89
2023/08/01 08:54:16;;;;;;;3.20;1.30;;;;;;;34.97;98.24;100186.04;108848;1257;68340;-88
2023/08/01 08:57:07;;;;;;;2.00;1.10;;;;;;;34.90;93.96;100184.89;108838;1255;59930;-89
2023/08/01 08:59:56;;;;;;;1.50;1.40;;;;;;;34.89;96.65;100186.77;108774;1257;64905;-89
2023/08/01 09:02:44;;;;;;;2.60;1.20;;;;;;;34.90;99.25;100184.58;108724;1255;59724;-89
2023/08/01 09:05:36;;;;;;;1.50;1.30;;;;;;;34.89;100.00;100179.58;108863;1255;59342;-89
2023/08/01 09:08:25;;;;;;;1.60;1.50;;;;;;;34.96;100.00;100177.95;108763;1255;68127;-89
2023/08/01 09:11:15;;;;;;;1.60;1.50;;;;;;;35.16;100.00;100176.70;108720;1255;60972;-88
2023/08/01 09:14:04;;;;;;;1.80;1.70;;;;;;;35.21;99.99;100177.61;108770;1256;66242;-89
2023/08/01 09:16:52;;;;;;;1.80;1.70;;;;;;;35.19;100.00;100176.45;108820;1258;59273;-89
2023/08/01 09:19:41;;;;;;;3.60;1.50;;;;;;;35.11;100.00;100173.45;108724;1255;59188;-88
2023/08/01 09:22:29;;;;;;;1.80;1.70;;;;;;;35.06;100.00;100177.71;108796;1256;68025;-89
2023/08/01 09:25:18;;;;;;;1.50;1.40;;;;;;;35.03;100.00;100174.10;108752;1255;61631;-90
2023/08/01 09:28:20;;;;;;;2.10;1.80;;;;;;;35.01;100.00;100171.90;108754;1255;66311;-90
2023/08/01 09:31:10;;;;;;;1.90;1.80;;;;;;;35.01;100.00;100168.98;108807;1255;59174;-90
2023/08/01 09:34:03;;;;;;;2.40;1.80;;;;;;;35.08;100.00;100170.66;108743;1255;59719;-89
2023/08/01 09:37:02;;;;;;;4.50;2.10;;;;;;;35.28;100.00;100172.40;108736;1259;66182;-90
2023/08/01 09:39:55;;;;;;;2.50;1.80;;;;;;;35.37;100.00;100174.38;108771;1260;60785;-89
2023/08/01 09:42:44;;;;;;;2.00;1.70;;;;;;;35.39;100.00;100173.50;108845;1256;64850;-90
2023/08/01 09:45:36;;;;;;;1.90;1.80;;;;;;;35.26;100.00;100172.40;108799;1257;59262;-90
2023/08/01 09:48:28;;;;;;;2.20;1.80;;;;;;;35.18;100.00;100170.95;108832;1257;59111;-89
2023/08/01 09:51:17;;;;;;;;;;;;;;;35.40;100.00;100172.58;108786;1257;65599;-89
2023/08/01 09:54:06;;;;;;;3.80;1.40;;;;;;;35.50;100.00;100170.23;108805;1255;60821;-89
2023/08/01 09:56:55;;;;;;;3.30;1.50;;;;;;;35.57;100.00;100166.09;108882;1256;62507;-90
2023/08/01 09:59:44;;;;;;;2.30;1.80;;;;;;;35.56;99.23;100163.94;108905;1256;59747;-90
2023/08/01 10:02:33;;;;;;;2.00;1.80;;;;;;;35.36;100.00;100161.11;108834;1255;59768;-90
2023/08/01 10:05:22;;;;;;;1.90;1.60;;;;;;;35.32;100.00;100157.92;108768;1255;68647;-91
2023/08/01 10:08:10;;;;;;;4.50;1.50;;;;;;;35.44;100.00;100161.73;108727;1257;61543;-90
2023/08/01 10:11:00;;;;;;;3.70;1.90;;;;;;;35.45;100.00;100159.50;108804;1257;64281;-90
2023/08/01 10:13:49;;;;;;;2.00;1.90;;;;;;;35.60;100.00;100155.36;108819;1255;59189;-90
2023/08/01 10:16:38;;;;;;;1.50;1.40;;;;;;;35.88;100.00;100152.41;108834;1256;59484;-90
2023/08/01 10:19:27;;;;;;;1.60;1.50;;;;;;;36.07;100.00;100153.55;108836;1255;66627;-90
2023/08/01 10:22:15;;;;;;;4.10;1.70;;;;;;;36.23;100.00;100151.80;108804;1256;60775;-91
2023/08/01 10:25:04;;;;;;;2.80;2.20;;;;;;;36.19;100.00;100151.66;108859;1255;66275;-90
2023/08/01 10:28:12;;;;;;;3.00;2.60;;;;;;;36.32;100.00;100146.42;108781;1256;59222;-90
2023/08/01 10:31:17;;;;;;;4.80;2.70;;;;;;;36.42;100.00;100140.70;108739;1256;59510;-92
2023/08/01 10:34:07;;;;;;;4.90;2.70;;;;;;;36.62;100.00;100136.74;108756;1256;68348;-91
2023/08/01 10:37:04;;;;;;;3.30;2.70;;;;;;;36.85;100.00;100130.73;108711;1256;61692;-90
2023/08/01 10:40:04;;;;;;;3.20;2.70;;;;;;;37.03;98.14;100124.39;108675;1257;65873;-90
2023/08/01 10:42:55;;;;;;;3.60;2.80;;;;;;;37.23;95.01;100124.81;108731;1257;59510;-90
2023/08/01 10:45:44;;;;;;;2.70;2.40;;;;;;;37.48;93.62;100115.45;108906;1255;59135;-89
2023/08/01 10:48:32;;;;;;;2.60;2.00;;;;;;;37.65;95.15;100112.48;108890;1255;67312;-90
2023/08/01 10:51:21;;;;;;;2.40;2.20;;;;;;;37.91;94.76;100112.81;108766;1258;60827;-89
2023/08/01 10:54:22;;;;;;;2.80;2.60;;;;;;;38.08;90.83;100112.23;108842;1255;64934;-90
2023/08/01 10:57:17;;;;;;;2.90;2.60;;;;;;;38.22;88.16;100104.72;108680;1256;59683;-91
2023/08/01 11:00:10;;;;;;;2.90;2.60;;;;;;;38.29;89.40;100102.29;108781;1257;59013;-90
2023/08/01 11:02:58;;;;;;;2.60;2.40;;;;;;;38.36;91.67;100104.05;108857;1255;67914;-90
2023/08/01 11:05:57;;;;;;;2.80;2.50;;;;;;;38.66;90.09;100105.48;108830;1256;60617;-90
2023/08/01 11:08:45;;;;;;;2.20;2.00;;;;;;;38.84;89.68;100103.98;108709;1257;66869;-89
2023/08/01 11:11:34;;;;;;;3.80;2.00;;;;;;;38.92;90.24;100100.07;108782;1256;59479;-90
2023/08/01 11:14:30;;;;;;;1.80;1.70;;;;;;;39.13;83.37;100098.30;108830;1257;59059;-91
2023/08/01 11:17:22;;;;;;;3.10;2.30;;;;;;;39.43;82.70;100090.59;108809;1256;67785;-89
2023/08/01 11:20:13;;;;;;;3.50;2.00;;;;;;;39.53;91.52;100087.21;108779;1256;61149;-90
2023/08/01 11:23:02;;;;;;;3.50;1.90;;;;;;;39.71;89.25;100080.60;108753;1257;64687;-90
2023/08/01 11:25:50;;;;;;;2.70;2.20;;;;;;;40.20;87.65;100078.02;108685;1256;59454;-90
2023/08/01 11:28:39;;;;;;;4.50;2.50;;;;;;;40.50;78.84;100080.05;108769;1255;59260;-90
2023/08/01 11:31:27;;;;;;;2.80;2.20;;;;;;;40.77;81.73;100073.03;108811;1255;65052;-90
2023/08/01 11:34:16;;;;;;;2.40;2.10;;;;;;;40.88;85.99;100071.02;108684;1256;71009;-89
2023/08/01 11:37:05;;;;;;;2.30;2.10;;;;;;;41.00;83.69;100069.77;108725;1257;63716;-91
2023/08/01 11:39:55;;;;;;;2.90;1.90;;;;;;;41.31;84.43;100069.08;108747;1255;59698;-90
2023/08/01 11:42:50;;;;;;;3.90;1.50;;;;;;;41.66;83.11;100066.02;108669;1256;59554;-90
2023/08/01 11:45:48;;;;;;;2.20;2.00;;;;;;;42.07;81.48;100059.14;108654;1255;66754;-89
2023/08/01 11:48:37;;;;;;;2.40;2.10;;;;;;;42.26;80.43;100059.88;108782;1257;59586;-90
2023/08/01 11:51:25;;;;;;;4.70;2.30;;;;;;;42.40;83.74;100058.70;108769;1257;64997;-90
2023/08/01 11:54:15;;;;;;;3.80;2.20;;;;;;;42.69;79.32;100059.58;108656;1255;59159;-90
2023/08/01 11:57:03;;;;;;;3.40;1.70;;;;;;;42.67;72.46;100058.94;108748;1257;59028;-89
2023/08/01 11:59:55;;;;;;;1.90;1.70;;;;;;;42.57;61.97;100059.98;108759;1256;66718;-90
2023/08/01 12:02:43;;;;;;;3.60;1.70;;;;;;;42.16;67.48;100062.77;108630;1256;71424;-89
2023/08/01 12:05:32;;;;;;;3.00;1.70;;;;;;;41.88;64.98;100067.09;108752;1256;64926;-89
2023/08/01 12:08:20;;;;;;;1.60;1.50;;;;;;;41.47;61.20;100069.28;108857;1256;59672;-89
2023/08/01 12:11:26;;;;;;;4.30;2.30;;;;;;;40.91;57.01;100068.64;108863;1256;59836;-90
2023/08/01 12:14:14;;;;;;;1.90;1.70;;;;;;;40.39;62.83;100071.09;108934;1256;68488;-89
2023/08/01 12:17:03;;;;;;;3.60;1.30;;;;;;;40.29;62.94;100072.20;108679;1256;62448;-89
2023/08/01 12:19:51;;;;;;;1.80;1.50;;;;;;;40.12;58.42;100069.98;108831;1257;63710;-90
2023/08/01 12:22:40;;;;;;;1.30;1.20;;;;;;;39.85;50.73;100069.58;108795;1260;59104;-90
2023/08/01 12:25:29;;;;;;;1.50;1.30;;;;;;;39.65;46.12;100071.19;108752;1255;59428;-89
2023/08/01 12:28:17;;;;;;;3.50;1.20;;;;;;;39.76;44.86;100070.41;108828;1256;65851;-89
2023/08/01 12:31:05;;;;;;;1.20;0.80;;;;;;;39.90;39.76;100067.98;108776;1259;63267;-87
2023/08/01 12:33:54;;;;;;;1.40;1.10;;;;;;;39.89;38.40;100069.72;108851;1256;64735;-88
2023/08/01 12:36:42;;;;;;;0.80;0.80;;;;;;;39.84;38.20;100065.98;108892;1257;59138;-88
2023/08/01 12:39:31;;;;;;;1.00;0.90;;;;;;;39.57;37.03;100064.17;108694;1256;59537;-89
2023/08/01 12:42:19;;;;;;;3.20;1.20;;;;;;;39.49;37.96;100064.05;108785;1256;69307;-88
2023/08/01 12:45:08;;;;;;;1.50;1.00;;;;;;;39.32;38.51;100065.31;108833;1256;59792;-89
2023/08/01 12:47:56;;;;;;;1.50;1.20;;;;;;;39.31;39.36;100068.96;108849;1257;73368;-88
2023/08/01 12:50:46;;;;;;;2.30;1.50;;;;;;;39.38;39.93;100070.52;108808;1256;59266;-89